sensor_id;sensor_type;location;lat;lon;timestamp;P1;durP1;ratioP1;P2;durP2;ratioP2
13404;SDS011;6773;51.192;7.024;2022-10-16T00:01:57;5.80;;;3.20;;
13404;SDS011;6773;51.192;7.024;2022-10-16T00:04:23;4.03;;;2.90;;
13404;SDS011;6773;51.192;7.024;2022-10-16T00:06:48;4.00;;;3.30;;
13404;SDS011;6773;51.192;7.024;2022-10-16T00:09:14;4.43;;;3.40;;
13404;SDS011;6773;51.192;7.024;2022-10-16T00:11:40;4.57;;;3.20;;
13404;SDS011;6773;51.192;7.024;2022-10-16T00:14:11;4.23;;;3.37;;
13404;SDS011;6773;51.192;7.024;2022-10-16T00:16:39;3.87;;;3.57;;
13404;SDS011;6773;51.192;7.024;2022-10-16T00:19:05;4.80;;;3.87;;
13404;SDS011;6773;51.192;7.024;2022-10-16T00:21:31;5.40;;;3.97;;
13404;SDS011;6773;51.192;7.024;2022-10-16T00:24:00;4.20;;;3.63;;
13404;SDS011;6773;51.192;7.024;2022-10-16T00:26:28;4.67;;;3.90;;
13404;SDS011;6773;51.192;7.024;2022-10-16T00:28:55;3.80;;;3.40;;
13404;SDS011;6773;51.192;7.024;2022-10-16T00:31:21;6.00;;;3.87;;
13404;SDS011;6773;51.192;7.024;2022-10-16T00:33:47;5.40;;;3.10;;
13404;SDS011;6773;51.192;7.024;2022-10-16T00:36:15;5.83;;;3.67;;
13404;SDS011;6773;51.192;7.024;2022-10-16T00:38:42;3.70;;;3.20;;
13404;SDS011;6773;51.192;7.024;2022-10-16T00:41:09;4.60;;;3.47;;
13404;SDS011;6773;51.192;7.024;2022-10-16T00:46:13;6.37;;;3.17;;
13404;SDS011;6773;51.192;7.024;2022-10-16T00:48:45;6.93;;;3.60;;
13404;SDS011;6773;51.192;7.024;2022-10-16T00:51:21;4.00;;;3.37;;
13404;SDS011;6773;51.192;7.024;2022-10-16T00:53:50;4.07;;;3.40;;
13404;SDS011;6773;51.192;7.024;2022-10-16T00:56:16;5.07;;;3.70;;
13404;SDS011;6773;51.192;7.024;2022-10-16T00:58:42;3.23;;;2.93;;
13404;SDS011;6773;51.192;7.024;2022-10-16T01:01:08;3.43;;;3.07;;
13404;SDS011;6773;51.192;7.024;2022-10-16T01:03:35;3.50;;;3.17;;
13404;SDS011;6773;51.192;7.024;2022-10-16T01:09:26;3.93;;;2.80;;
13404;SDS011;6773;51.192;7.024;2022-10-16T01:11:28;3.57;;;2.60;;
13404;SDS011;6773;51.192;7.024;2022-10-16T01:14:00;3.23;;;2.50;;
13404;SDS011;6773;51.192;7.024;2022-10-16T01:16:35;3.43;;;2.93;;
13404;SDS011;6773;51.192;7.024;2022-10-16T01:22:09;2.90;;;2.70;;
13404;SDS011;6773;51.192;7.024;2022-10-16T01:24:39;3.80;;;3.00;;
13404;SDS011;6773;51.192;7.024;2022-10-16T01:29:56;3.37;;;3.10;;
13404;SDS011;6773;51.192;7.024;2022-10-16T01:35:04;5.53;;;3.20;;
13404;SDS011;6773;51.192;7.024;2022-10-16T01:37:38;3.70;;;3.30;;
13404;SDS011;6773;51.192;7.024;2022-10-16T01:40:10;3.83;;;3.20;;
13404;SDS011;6773;51.192;7.024;2022-10-16T01:42:39;4.17;;;2.70;;
13404;SDS011;6773;51.192;7.024;2022-10-16T01:45:12;3.67;;;3.23;;
13404;SDS011;6773;51.192;7.024;2022-10-16T01:47:42;4.17;;;2.80;;
13404;SDS011;6773;51.192;7.024;2022-10-16T01:50:09;4.27;;;3.50;;
13404;SDS011;6773;51.192;7.024;2022-10-16T01:52:35;4.53;;;3.37;;
13404;SDS011;6773;51.192;7.024;2022-10-16T01:55:04;3.93;;;3.37;;
13404;SDS011;6773;51.192;7.024;2022-10-16T01:57:33;3.80;;;3.40;;
13404;SDS011;6773;51.192;7.024;2022-10-16T02:00:05;5.27;;;3.43;;
13404;SDS011;6773;51.192;7.024;2022-10-16T02:02:35;5.30;;;3.80;;
13404;SDS011;6773;51.192;7.024;2022-10-16T02:05:04;3.80;;;3.40;;
13404;SDS011;6773;51.192;7.024;2022-10-16T02:07:34;5.23;;;3.50;;
13404;SDS011;6773;51.192;7.024;2022-10-16T02:10:00;3.97;;;3.53;;
13404;SDS011;6773;51.192;7.024;2022-10-16T02:12:27;4.67;;;3.67;;
13404;SDS011;6773;51.192;7.024;2022-10-16T02:14:56;3.87;;;3.13;;
13404;SDS011;6773;51.192;7.024;2022-10-16T02:17:22;3.50;;;3.13;;
13404;SDS011;6773;51.192;7.024;2022-10-16T02:19:49;4.00;;;3.20;;
13404;SDS011;6773;51.192;7.024;2022-10-16T02:22:18;4.17;;;3.07;;
13404;SDS011;6773;51.192;7.024;2022-10-16T02:24:59;4.67;;;2.93;;
13404;SDS011;6773;51.192;7.024;2022-10-16T02:27:38;2.50;;;2.30;;
13404;SDS011;6773;51.192;7.024;2022-10-16T02:30:54;3.40;;;3.10;;
13404;SDS011;6773;51.192;7.024;2022-10-16T02:33:02;3.03;;;2.40;;
13404;SDS011;6773;51.192;7.024;2022-10-16T02:35:30;3.17;;;2.97;;
13404;SDS011;6773;51.192;7.024;2022-10-16T02:37:56;3.33;;;2.67;;
13404;SDS011;6773;51.192;7.024;2022-10-16T02:40:23;2.73;;;2.53;;
13404;SDS011;6773;51.192;7.024;2022-10-16T02:42:51;2.67;;;2.23;;
13404;SDS011;6773;51.192;7.024;2022-10-16T02:45:18;3.60;;;2.47;;
13404;SDS011;6773;51.192;7.024;2022-10-16T02:47:44;2.70;;;2.50;;
13404;SDS011;6773;51.192;7.024;2022-10-16T02:50:10;2.53;;;2.33;;
13404;SDS011;6773;51.192;7.024;2022-10-16T02:52:36;3.63;;;2.30;;
13404;SDS011;6773;51.192;7.024;2022-10-16T02:55:02;3.53;;;2.40;;
13404;SDS011;6773;51.192;7.024;2022-10-16T02:57:27;3.93;;;2.50;;
13404;SDS011;6773;51.192;7.024;2022-10-16T02:59:53;3.50;;;2.70;;
13404;SDS011;6773;51.192;7.024;2022-10-16T03:02:19;2.40;;;2.20;;
13404;SDS011;6773;51.192;7.024;2022-10-16T03:04:45;3.93;;;2.23;;
13404;SDS011;6773;51.192;7.024;2022-10-16T03:07:11;2.60;;;2.40;;
13404;SDS011;6773;51.192;7.024;2022-10-16T03:09:36;2.97;;;2.10;;
13404;SDS011;6773;51.192;7.024;2022-10-16T03:12:02;2.43;;;2.20;;
13404;SDS011;6773;51.192;7.024;2022-10-16T03:14:27;2.47;;;2.27;;
13404;SDS011;6773;51.192;7.024;2022-10-16T03:16:53;3.80;;;2.10;;
13404;SDS011;6773;51.192;7.024;2022-10-16T03:19:19;2.70;;;2.20;;
13404;SDS011;6773;51.192;7.024;2022-10-16T03:21:44;3.07;;;2.30;;
13404;SDS011;6773;51.192;7.024;2022-10-16T03:24:10;2.80;;;2.03;;
13404;SDS011;6773;51.192;7.024;2022-10-16T03:26:36;2.93;;;2.20;;
13404;SDS011;6773;51.192;7.024;2022-10-16T03:29:02;2.47;;;2.27;;
13404;SDS011;6773;51.192;7.024;2022-10-16T03:31:28;2.70;;;1.83;;
13404;SDS011;6773;51.192;7.024;2022-10-16T03:33:54;2.67;;;2.00;;
13404;SDS011;6773;51.192;7.024;2022-10-16T03:36:19;2.33;;;2.13;;
13404;SDS011;6773;51.192;7.024;2022-10-16T03:38:45;3.03;;;1.93;;
13404;SDS011;6773;51.192;7.024;2022-10-16T03:41:11;6.67;;;2.13;;
13404;SDS011;6773;51.192;7.024;2022-10-16T03:43:37;4.17;;;1.90;;
13404;SDS011;6773;51.192;7.024;2022-10-16T03:46:02;2.20;;;1.70;;
13404;SDS011;6773;51.192;7.024;2022-10-16T03:48:28;5.33;;;2.20;;
13404;SDS011;6773;51.192;7.024;2022-10-16T03:50:54;2.13;;;1.90;;
13404;SDS011;6773;51.192;7.024;2022-10-16T03:53:20;3.67;;;2.00;;
13404;SDS011;6773;51.192;7.024;2022-10-16T03:55:46;3.67;;;2.00;;
13404;SDS011;6773;51.192;7.024;2022-10-16T03:58:11;2.27;;;1.70;;
13404;SDS011;6773;51.192;7.024;2022-10-16T04:00:41;3.33;;;1.90;;
13404;SDS011;6773;51.192;7.024;2022-10-16T04:03:11;1.80;;;1.70;;
13404;SDS011;6773;51.192;7.024;2022-10-16T04:05:37;1.87;;;1.77;;
13404;SDS011;6773;51.192;7.024;2022-10-16T04:08:03;2.00;;;1.80;;
13404;SDS011;6773;51.192;7.024;2022-10-16T04:10:29;2.80;;;1.80;;
13404;SDS011;6773;51.192;7.024;2022-10-16T04:12:55;5.13;;;2.87;;
13404;SDS011;6773;51.192;7.024;2022-10-16T04:15:21;2.03;;;1.80;;
13404;SDS011;6773;51.192;7.024;2022-10-16T04:17:47;2.27;;;2.07;;
13404;SDS011;6773;51.192;7.024;2022-10-16T04:20:13;2.57;;;2.30;;
13404;SDS011;6773;51.192;7.024;2022-10-16T04:22:39;3.57;;;2.10;;
13404;SDS011;6773;51.192;7.024;2022-10-16T04:25:05;2.30;;;1.90;;
13404;SDS011;6773;51.192;7.024;2022-10-16T04:27:30;2.27;;;1.70;;
13404;SDS011;6773;51.192;7.024;2022-10-16T04:29:57;2.97;;;1.93;;
13404;SDS011;6773;51.192;7.024;2022-10-16T04:32:23;2.10;;;1.90;;
13404;SDS011;6773;51.192;7.024;2022-10-16T04:34:48;2.20;;;2.00;;
13404;SDS011;6773;51.192;7.024;2022-10-16T04:37:14;3.10;;;1.93;;
13404;SDS011;6773;51.192;7.024;2022-10-16T04:39:40;2.30;;;2.10;;
13404;SDS011;6773;51.192;7.024;2022-10-16T04:42:06;2.00;;;1.90;;
13404;SDS011;6773;51.192;7.024;2022-10-16T04:44:31;2.40;;;2.13;;
13404;SDS011;6773;51.192;7.024;2022-10-16T04:46:57;2.77;;;2.20;;
13404;SDS011;6773;51.192;7.024;2022-10-16T04:49:23;4.17;;;1.90;;
13404;SDS011;6773;51.192;7.024;2022-10-16T04:51:49;2.73;;;1.80;;
13404;SDS011;6773;51.192;7.024;2022-10-16T04:54:14;4.30;;;2.17;;
13404;SDS011;6773;51.192;7.024;2022-10-16T04:56:40;2.30;;;2.10;;
13404;SDS011;6773;51.192;7.024;2022-10-16T04:59:11;2.33;;;1.90;;
13404;SDS011;6773;51.192;7.024;2022-10-16T05:01:38;5.07;;;2.23;;
13404;SDS011;6773;51.192;7.024;2022-10-16T05:04:04;2.60;;;2.40;;
13404;SDS011;6773;51.192;7.024;2022-10-16T05:06:29;3.40;;;2.37;;
13404;SDS011;6773;51.192;7.024;2022-10-16T05:08:55;2.37;;;2.17;;
13404;SDS011;6773;51.192;7.024;2022-10-16T05:11:21;2.60;;;2.40;;
13404;SDS011;6773;51.192;7.024;2022-10-16T05:13:47;2.83;;;2.63;;
13404;SDS011;6773;51.192;7.024;2022-10-16T05:16:12;3.17;;;2.37;;
13404;SDS011;6773;51.192;7.024;2022-10-16T05:18:38;3.83;;;2.30;;
13404;SDS011;6773;51.192;7.024;2022-10-16T05:21:03;2.77;;;2.40;;
13404;SDS011;6773;51.192;7.024;2022-10-16T05:23:30;2.73;;;2.53;;
13404;SDS011;6773;51.192;7.024;2022-10-16T05:25:57;2.50;;;2.30;;
13404;SDS011;6773;51.192;7.024;2022-10-16T05:28:26;2.67;;;2.27;;
13404;SDS011;6773;51.192;7.024;2022-10-16T05:30:53;3.67;;;2.80;;
13404;SDS011;6773;51.192;7.024;2022-10-16T05:33:20;2.87;;;2.67;;
13404;SDS011;6773;51.192;7.024;2022-10-16T05:35:48;4.00;;;2.50;;
13404;SDS011;6773;51.192;7.024;2022-10-16T05:38:14;3.40;;;2.80;;
13404;SDS011;6773;51.192;7.024;2022-10-16T05:40:40;4.50;;;2.93;;
13404;SDS011;6773;51.192;7.024;2022-10-16T05:43:06;2.80;;;2.60;;
13404;SDS011;6773;51.192;7.024;2022-10-16T05:45:32;4.00;;;3.07;;
13404;SDS011;6773;51.192;7.024;2022-10-16T05:47:59;4.27;;;2.90;;
13404;SDS011;6773;51.192;7.024;2022-10-16T05:50:25;2.90;;;2.70;;
13404;SDS011;6773;51.192;7.024;2022-10-16T05:52:51;2.90;;;2.40;;
13404;SDS011;6773;51.192;7.024;2022-10-16T05:55:17;3.60;;;2.97;;
13404;SDS011;6773;51.192;7.024;2022-10-16T05:57:42;3.73;;;3.03;;
13404;SDS011;6773;51.192;7.024;2022-10-16T06:00:09;2.83;;;2.63;;
13404;SDS011;6773;51.192;7.024;2022-10-16T06:02:35;3.13;;;2.83;;
13404;SDS011;6773;51.192;7.024;2022-10-16T06:05:00;2.90;;;2.70;;
13404;SDS011;6773;51.192;7.024;2022-10-16T06:07:26;3.10;;;2.60;;
13404;SDS011;6773;51.192;7.024;2022-10-16T06:09:52;3.77;;;2.67;;
13404;SDS011;6773;51.192;7.024;2022-10-16T06:12:18;3.67;;;2.77;;
13404;SDS011;6773;51.192;7.024;2022-10-16T06:14:45;2.77;;;2.57;;
13404;SDS011;6773;51.192;7.024;2022-10-16T06:17:12;3.50;;;2.67;;
13404;SDS011;6773;51.192;7.024;2022-10-16T06:19:38;3.93;;;2.93;;
13404;SDS011;6773;51.192;7.024;2022-10-16T06:22:04;4.47;;;3.33;;
13404;SDS011;6773;51.192;7.024;2022-10-16T06:24:30;4.83;;;2.90;;
13404;SDS011;6773;51.192;7.024;2022-10-16T06:26:56;3.53;;;2.43;;
13404;SDS011;6773;51.192;7.024;2022-10-16T06:29:21;2.40;;;2.20;;
13404;SDS011;6773;51.192;7.024;2022-10-16T06:31:47;2.60;;;2.40;;
13404;SDS011;6773;51.192;7.024;2022-10-16T06:34:13;4.77;;;2.47;;
13404;SDS011;6773;51.192;7.024;2022-10-16T06:36:38;3.20;;;2.90;;
13404;SDS011;6773;51.192;7.024;2022-10-16T06:39:04;2.77;;;2.23;;
13404;SDS011;6773;51.192;7.024;2022-10-16T06:41:32;3.30;;;2.20;;
13404;SDS011;6773;51.192;7.024;2022-10-16T06:43:58;2.40;;;2.20;;
13404;SDS011;6773;51.192;7.024;2022-10-16T06:46:24;3.17;;;1.80;;
13404;SDS011;6773;51.192;7.024;2022-10-16T06:48:51;2.33;;;2.10;;
13404;SDS011;6773;51.192;7.024;2022-10-16T06:51:18;3.77;;;1.93;;
13404;SDS011;6773;51.192;7.024;2022-10-16T06:53:46;3.40;;;1.73;;
13404;SDS011;6773;51.192;7.024;2022-10-16T06:56:18;3.07;;;2.03;;
13404;SDS011;6773;51.192;7.024;2022-10-16T06:58:44;2.20;;;1.97;;
13404;SDS011;6773;51.192;7.024;2022-10-16T07:01:11;2.63;;;1.90;;
13404;SDS011;6773;51.192;7.024;2022-10-16T07:03:38;2.43;;;2.20;;
13404;SDS011;6773;51.192;7.024;2022-10-16T07:06:06;2.97;;;1.90;;
13404;SDS011;6773;51.192;7.024;2022-10-16T07:08:33;4.70;;;2.37;;
13404;SDS011;6773;51.192;7.024;2022-10-16T07:11:00;2.20;;;2.00;;
13404;SDS011;6773;51.192;7.024;2022-10-16T07:13:27;3.30;;;2.30;;
13404;SDS011;6773;51.192;7.024;2022-10-16T07:15:52;2.97;;;2.20;;
13404;SDS011;6773;51.192;7.024;2022-10-16T07:18:18;1.93;;;1.83;;
13404;SDS011;6773;51.192;7.024;2022-10-16T07:20:44;5.00;;;2.23;;
13404;SDS011;6773;51.192;7.024;2022-10-16T07:23:09;2.30;;;2.20;;
13404;SDS011;6773;51.192;7.024;2022-10-16T07:25:35;3.73;;;2.30;;
13404;SDS011;6773;51.192;7.024;2022-10-16T07:28:01;2.50;;;2.30;;
13404;SDS011;6773;51.192;7.024;2022-10-16T07:30:26;2.30;;;2.10;;
13404;SDS011;6773;51.192;7.024;2022-10-16T07:32:52;2.40;;;2.10;;
13404;SDS011;6773;51.192;7.024;2022-10-16T07:35:17;2.23;;;2.13;;
13404;SDS011;6773;51.192;7.024;2022-10-16T07:37:46;6.40;;;2.40;;
13404;SDS011;6773;51.192;7.024;2022-10-16T07:40:11;2.17;;;2.07;;
13404;SDS011;6773;51.192;7.024;2022-10-16T07:42:38;4.00;;;2.87;;
13404;SDS011;6773;51.192;7.024;2022-10-16T07:45:03;2.47;;;2.13;;
13404;SDS011;6773;51.192;7.024;2022-10-16T07:47:29;2.40;;;2.20;;
13404;SDS011;6773;51.192;7.024;2022-10-16T07:49:55;2.23;;;2.13;;
13404;SDS011;6773;51.192;7.024;2022-10-16T07:52:21;4.10;;;2.40;;
13404;SDS011;6773;51.192;7.024;2022-10-16T07:54:47;2.73;;;2.53;;
13404;SDS011;6773;51.192;7.024;2022-10-16T07:57:13;2.13;;;2.00;;
13404;SDS011;6773;51.192;7.024;2022-10-16T07:59:44;3.03;;;2.23;;
13404;SDS011;6773;51.192;7.024;2022-10-16T08:02:10;2.27;;;2.00;;
13404;SDS011;6773;51.192;7.024;2022-10-16T08:04:37;2.40;;;2.20;;
13404;SDS011;6773;51.192;7.024;2022-10-16T08:07:02;2.00;;;1.90;;
13404;SDS011;6773;51.192;7.024;2022-10-16T08:09:28;2.80;;;2.00;;
13404;SDS011;6773;51.192;7.024;2022-10-16T08:11:53;4.53;;;1.80;;
13404;SDS011;6773;51.192;7.024;2022-10-16T08:14:19;2.30;;;2.10;;
13404;SDS011;6773;51.192;7.024;2022-10-16T08:16:44;1.87;;;1.77;;
13404;SDS011;6773;51.192;7.024;2022-10-16T08:19:10;1.80;;;1.70;;
13404;SDS011;6773;51.192;7.024;2022-10-16T08:21:36;2.33;;;2.00;;
13404;SDS011;6773;51.192;7.024;2022-10-16T08:24:01;1.90;;;1.73;;
13404;SDS011;6773;51.192;7.024;2022-10-16T08:26:27;1.80;;;1.57;;
13404;SDS011;6773;51.192;7.024;2022-10-16T08:28:53;3.20;;;1.43;;
13404;SDS011;6773;51.192;7.024;2022-10-16T08:31:20;4.50;;;1.97;;
13404;SDS011;6773;51.192;7.024;2022-10-16T08:33:46;1.93;;;1.37;;
13404;SDS011;6773;51.192;7.024;2022-10-16T08:36:12;1.77;;;1.50;;
13404;SDS011;6773;51.192;7.024;2022-10-16T08:38:38;1.97;;;1.50;;
13404;SDS011;6773;51.192;7.024;2022-10-16T08:43:40;3.47;;;1.40;;
13404;SDS011;6773;51.192;7.024;2022-10-16T08:47:05;1.57;;;1.30;;
13404;SDS011;6773;51.192;7.024;2022-10-16T08:49:21;5.07;;;1.80;;
13404;SDS011;6773;51.192;7.024;2022-10-16T08:51:49;1.77;;;1.50;;
13404;SDS011;6773;51.192;7.024;2022-10-16T08:57:13;2.77;;;1.30;;
13404;SDS011;6773;51.192;7.024;2022-10-16T08:59:42;1.97;;;1.43;;
13404;SDS011;6773;51.192;7.024;2022-10-16T09:02:17;2.47;;;1.40;;
13404;SDS011;6773;51.192;7.024;2022-10-16T09:10:50;1.90;;;1.57;;
13404;SDS011;6773;51.192;7.024;2022-10-16T09:16:39;3.97;;;1.40;;
13404;SDS011;6773;51.192;7.024;2022-10-16T09:19:19;3.17;;;1.40;;
13404;SDS011;6773;51.192;7.024;2022-10-16T09:21:56;3.00;;;1.50;;
13404;SDS011;6773;51.192;7.024;2022-10-16T09:24:25;2.57;;;1.47;;
13404;SDS011;6773;51.192;7.024;2022-10-16T09:26:51;2.45;;;1.63;;
13404;SDS011;6773;51.192;7.024;2022-10-16T09:29:17;3.65;;;1.58;;
13404;SDS011;6773;51.192;7.024;2022-10-16T09:31:50;2.53;;;1.33;;
13404;SDS011;6773;51.192;7.024;2022-10-16T09:36:54;1.90;;;1.75;;
13404;SDS011;6773;51.192;7.024;2022-10-16T09:39:22;2.33;;;1.20;;
13404;SDS011;6773;51.192;7.024;2022-10-16T09:41:47;2.72;;;1.48;;
13404;SDS011;6773;51.192;7.024;2022-10-16T09:44:19;3.88;;;1.27;;
13404;SDS011;6773;51.192;7.024;2022-10-16T09:47:00;1.40;;;1.30;;
13404;SDS011;6773;51.192;7.024;2022-10-16T09:49:26;3.05;;;1.80;;
13404;SDS011;6773;51.192;7.024;2022-10-16T09:52:02;2.55;;;1.50;;
13404;SDS011;6773;51.192;7.024;2022-10-16T09:54:36;2.60;;;1.20;;
13404;SDS011;6773;51.192;7.024;2022-10-16T09:57:10;1.70;;;1.48;;
13404;SDS011;6773;51.192;7.024;2022-10-16T09:59:45;2.03;;;1.15;;
13404;SDS011;6773;51.192;7.024;2022-10-16T10:02:20;1.45;;;1.20;;
13404;SDS011;6773;51.192;7.024;2022-10-16T10:04:54;2.55;;;1.40;;
13404;SDS011;6773;51.192;7.024;2022-10-16T10:07:23;3.58;;;1.40;;
13404;SDS011;6773;51.192;7.024;2022-10-16T10:09:54;1.85;;;1.10;;
13404;SDS011;6773;51.192;7.024;2022-10-16T10:14:51;2.53;;;1.25;;
13404;SDS011;6773;51.192;7.024;2022-10-16T10:17:32;1.40;;;1.30;;
13404;SDS011;6773;51.192;7.024;2022-10-16T10:20:13;2.17;;;1.05;;
13404;SDS011;6773;51.192;7.024;2022-10-16T10:22:53;2.03;;;1.30;;
13404;SDS011;6773;51.192;7.024;2022-10-16T10:28:19;3.15;;;1.20;;
13404;SDS011;6773;51.192;7.024;2022-10-16T10:31:18;2.63;;;1.13;;
13404;SDS011;6773;51.192;7.024;2022-10-16T10:36:42;1.70;;;1.10;;
13404;SDS011;6773;51.192;7.024;2022-10-16T10:39:17;1.67;;;1.20;;
13404;SDS011;6773;51.192;7.024;2022-10-16T10:42:02;1.42;;;1.02;;
13404;SDS011;6773;51.192;7.024;2022-10-16T10:53:00;3.05;;;1.17;;
13404;SDS011;6773;51.192;7.024;2022-10-16T10:58:38;1.75;;;1.08;;
13404;SDS011;6773;51.192;7.024;2022-10-16T11:01:17;1.80;;;1.27;;
13404;SDS011;6773;51.192;7.024;2022-10-16T11:03:56;1.83;;;1.00;;
13404;SDS011;6773;51.192;7.024;2022-10-16T11:06:40;2.75;;;1.10;;
13404;SDS011;6773;51.192;7.024;2022-10-16T11:09:10;3.38;;;1.13;;
13404;SDS011;6773;51.192;7.024;2022-10-16T11:14:38;1.70;;;1.10;;
13404;SDS011;6773;51.192;7.024;2022-10-16T11:30:16;2.50;;;1.10;;
13404;SDS011;6773;51.192;7.024;2022-10-16T11:38:29;1.98;;;1.20;;
13404;SDS011;6773;51.192;7.024;2022-10-16T11:46:35;1.25;;;1.05;;
13404;SDS011;6773;51.192;7.024;2022-10-16T11:49:06;1.67;;;0.93;;
13404;SDS011;6773;51.192;7.024;2022-10-16T11:51:55;1.30;;;1.20;;
13404;SDS011;6773;51.192;7.024;2022-10-16T11:57:29;3.13;;;1.30;;
13404;SDS011;6773;51.192;7.024;2022-10-16T12:00:19;1.95;;;1.20;;
13404;SDS011;6773;51.192;7.024;2022-10-16T12:02:58;3.78;;;1.20;;
13404;SDS011;6773;51.192;7.024;2022-10-16T12:08:12;2.15;;;1.42;;
13404;SDS011;6773;51.192;7.024;2022-10-16T12:10:40;2.25;;;1.25;;
13404;SDS011;6773;51.192;7.024;2022-10-16T12:18:50;1.88;;;1.20;;
13404;SDS011;6773;51.192;7.024;2022-10-16T12:21:35;2.33;;;1.20;;
13404;SDS011;6773;51.192;7.024;2022-10-16T12:24:01;1.27;;;1.17;;
13404;SDS011;6773;51.192;7.024;2022-10-16T12:26:30;2.03;;;1.10;;
13404;SDS011;6773;51.192;7.024;2022-10-16T12:29:11;1.35;;;1.10;;
13404;SDS011;6773;51.192;7.024;2022-10-16T12:31:39;1.67;;;1.30;;
13404;SDS011;6773;51.192;7.024;2022-10-16T12:34:23;2.22;;;1.38;;
13404;SDS011;6773;51.192;7.024;2022-10-16T12:36:54;1.35;;;1.13;;
13404;SDS011;6773;51.192;7.024;2022-10-16T12:39:22;2.50;;;1.02;;
13404;SDS011;6773;51.192;7.024;2022-10-16T12:42:00;2.50;;;1.10;;
13404;SDS011;6773;51.192;7.024;2022-10-16T12:44:31;1.83;;;1.13;;
13404;SDS011;6773;51.192;7.024;2022-10-16T12:47:00;3.03;;;1.20;;
13404;SDS011;6773;51.192;7.024;2022-10-16T12:49:36;1.75;;;1.20;;
13404;SDS011;6773;51.192;7.024;2022-10-16T12:52:22;3.42;;;1.25;;
13404;SDS011;6773;51.192;7.024;2022-10-16T12:54:55;2.17;;;1.08;;
13404;SDS011;6773;51.192;7.024;2022-10-16T13:05:57;2.30;;;1.20;;
13404;SDS011;6773;51.192;7.024;2022-10-16T13:11:41;3.30;;;1.30;;
13404;SDS011;6773;51.192;7.024;2022-10-16T13:30:24;1.90;;;1.02;;
13404;SDS011;6773;51.192;7.024;2022-10-16T13:35:45;2.00;;;0.90;;
13404;SDS011;6773;51.192;7.024;2022-10-16T13:38:14;2.03;;;1.17;;
13404;SDS011;6773;51.192;7.024;2022-10-16T13:40:55;1.52;;;0.98;;
13404;SDS011;6773;51.192;7.024;2022-10-16T13:46:06;1.10;;;1.00;;
13404;SDS011;6773;51.192;7.024;2022-10-16T13:48:36;2.97;;;1.00;;
13404;SDS011;6773;51.192;7.024;2022-10-16T13:51:03;1.55;;;0.95;;
13404;SDS011;6773;51.192;7.024;2022-10-16T13:53:36;1.45;;;1.15;;
13404;SDS011;6773;51.192;7.024;2022-10-16T13:56:05;2.65;;;1.13;;
13404;SDS011;6773;51.192;7.024;2022-10-16T13:58:35;1.35;;;1.00;;
13404;SDS011;6773;51.192;7.024;2022-10-16T14:01:02;2.15;;;0.93;;
13404;SDS011;6773;51.192;7.024;2022-10-16T14:03:30;1.15;;;1.05;;
13404;SDS011;6773;51.192;7.024;2022-10-16T14:05:58;2.15;;;1.00;;
13404;SDS011;6773;51.192;7.024;2022-10-16T14:08:26;1.67;;;0.93;;
13404;SDS011;6773;51.192;7.024;2022-10-16T14:10:54;2.35;;;1.00;;
13404;SDS011;6773;51.192;7.024;2022-10-16T14:16:16;1.08;;;0.90;;
13404;SDS011;6773;51.192;7.024;2022-10-16T14:18:55;1.88;;;0.70;;
13404;SDS011;6773;51.192;7.024;2022-10-16T14:21:23;1.95;;;0.90;;
13404;SDS011;6773;51.192;7.024;2022-10-16T14:23:50;2.88;;;1.10;;
13404;SDS011;6773;51.192;7.024;2022-10-16T14:26:20;1.60;;;1.10;;
13404;SDS011;6773;51.192;7.024;2022-10-16T14:28:47;3.00;;;0.90;;
13404;SDS011;6773;51.192;7.024;2022-10-16T14:31:35;2.38;;;1.00;;
13404;SDS011;6773;51.192;7.024;2022-10-16T14:34:01;1.63;;;1.00;;
13404;SDS011;6773;51.192;7.024;2022-10-16T14:36:27;1.20;;;0.90;;
13404;SDS011;6773;51.192;7.024;2022-10-16T14:41:20;2.30;;;1.10;;
13404;SDS011;6773;51.192;7.024;2022-10-16T14:43:49;1.00;;;1.00;;
13404;SDS011;6773;51.192;7.024;2022-10-16T14:46:18;4.38;;;1.17;;
13404;SDS011;6773;51.192;7.024;2022-10-16T14:48:46;1.38;;;1.00;;
13404;SDS011;6773;51.192;7.024;2022-10-16T14:51:15;1.85;;;1.13;;
13404;SDS011;6773;51.192;7.024;2022-10-16T14:53:42;2.17;;;1.40;;
13404;SDS011;6773;51.192;7.024;2022-10-16T14:56:08;1.60;;;1.50;;
13404;SDS011;6773;51.192;7.024;2022-10-16T14:58:40;1.60;;;1.27;;
13404;SDS011;6773;51.192;7.024;2022-10-16T15:01:07;4.93;;;3.00;;
13404;SDS011;6773;51.192;7.024;2022-10-16T15:03:35;2.78;;;2.17;;
13404;SDS011;6773;51.192;7.024;2022-10-16T15:06:01;4.35;;;2.40;;
13404;SDS011;6773;51.192;7.024;2022-10-16T15:08:27;1.25;;;1.15;;
13404;SDS011;6773;51.192;7.024;2022-10-16T15:10:53;3.22;;;1.10;;
13404;SDS011;6773;51.192;7.024;2022-10-16T15:13:21;2.15;;;0.90;;
13404;SDS011;6773;51.192;7.024;2022-10-16T15:15:47;1.98;;;1.02;;
13404;SDS011;6773;51.192;7.024;2022-10-16T15:18:14;1.00;;;1.00;;
13404;SDS011;6773;51.192;7.024;2022-10-16T15:20:45;1.13;;;1.02;;
13404;SDS011;6773;51.192;7.024;2022-10-16T15:23:13;1.67;;;1.05;;
13404;SDS011;6773;51.192;7.024;2022-10-16T15:25:44;1.77;;;1.00;;
13404;SDS011;6773;51.192;7.024;2022-10-16T15:28:16;2.47;;;1.20;;
13404;SDS011;6773;51.192;7.024;2022-10-16T15:30:42;1.23;;;1.08;;
13404;SDS011;6773;51.192;7.024;2022-10-16T15:33:14;2.45;;;1.10;;
13404;SDS011;6773;51.192;7.024;2022-10-16T15:35:46;2.33;;;1.13;;
13404;SDS011;6773;51.192;7.024;2022-10-16T15:38:13;1.52;;;0.93;;
13404;SDS011;6773;51.192;7.024;2022-10-16T15:40:39;1.77;;;0.98;;
13404;SDS011;6773;51.192;7.024;2022-10-16T15:43:06;1.48;;;1.10;;
13404;SDS011;6773;51.192;7.024;2022-10-16T15:45:32;1.77;;;1.13;;
13404;SDS011;6773;51.192;7.024;2022-10-16T15:47:58;2.13;;;1.00;;
13404;SDS011;6773;51.192;7.024;2022-10-16T15:50:23;1.92;;;1.40;;
13404;SDS011;6773;51.192;7.024;2022-10-16T15:52:50;1.45;;;1.35;;
13404;SDS011;6773;51.192;7.024;2022-10-16T15:55:16;1.35;;;1.00;;
13404;SDS011;6773;51.192;7.024;2022-10-16T15:57:43;2.88;;;1.40;;
13404;SDS011;6773;51.192;7.024;2022-10-16T16:00:10;3.10;;;1.83;;
13404;SDS011;6773;51.192;7.024;2022-10-16T16:02:38;4.22;;;1.40;;
13404;SDS011;6773;51.192;7.024;2022-10-16T16:05:04;1.85;;;1.30;;
13404;SDS011;6773;51.192;7.024;2022-10-16T16:07:34;2.33;;;1.23;;
13404;SDS011;6773;51.192;7.024;2022-10-16T16:10:01;1.85;;;1.10;;
13404;SDS011;6773;51.192;7.024;2022-10-16T16:12:28;2.05;;;1.27;;
13404;SDS011;6773;51.192;7.024;2022-10-16T16:14:53;2.15;;;1.48;;
13404;SDS011;6773;51.192;7.024;2022-10-16T16:17:19;1.88;;;1.40;;
13404;SDS011;6773;51.192;7.024;2022-10-16T16:19:45;1.50;;;1.30;;
13404;SDS011;6773;51.192;7.024;2022-10-16T16:22:11;1.33;;;1.23;;
13404;SDS011;6773;51.192;7.024;2022-10-16T16:24:37;1.40;;;1.27;;
13404;SDS011;6773;51.192;7.024;2022-10-16T16:27:03;3.08;;;1.27;;
13404;SDS011;6773;51.192;7.024;2022-10-16T16:29:28;3.15;;;1.30;;
13404;SDS011;6773;51.192;7.024;2022-10-16T16:31:54;3.45;;;1.45;;
13404;SDS011;6773;51.192;7.024;2022-10-16T16:34:23;3.20;;;1.20;;
13404;SDS011;6773;51.192;7.024;2022-10-16T16:36:50;1.40;;;1.20;;
13404;SDS011;6773;51.192;7.024;2022-10-16T16:39:16;3.30;;;1.38;;
13404;SDS011;6773;51.192;7.024;2022-10-16T16:41:42;1.50;;;1.40;;
13404;SDS011;6773;51.192;7.024;2022-10-16T16:44:10;3.40;;;1.45;;
13404;SDS011;6773;51.192;7.024;2022-10-16T16:46:36;2.72;;;1.52;;
13404;SDS011;6773;51.192;7.024;2022-10-16T16:49:03;2.67;;;1.40;;
13404;SDS011;6773;51.192;7.024;2022-10-16T16:51:29;3.40;;;1.40;;
13404;SDS011;6773;51.192;7.024;2022-10-16T16:53:55;1.77;;;1.30;;
13404;SDS011;6773;51.192;7.024;2022-10-16T16:56:22;1.70;;;1.35;;
13404;SDS011;6773;51.192;7.024;2022-10-16T16:58:49;2.45;;;1.50;;
13404;SDS011;6773;51.192;7.024;2022-10-16T17:01:15;1.80;;;1.23;;
13404;SDS011;6773;51.192;7.024;2022-10-16T17:03:42;1.40;;;1.30;;
13404;SDS011;6773;51.192;7.024;2022-10-16T17:06:09;1.40;;;1.30;;
13404;SDS011;6773;51.192;7.024;2022-10-16T17:08:37;1.50;;;1.40;;
13404;SDS011;6773;51.192;7.024;2022-10-16T17:11:03;3.13;;;1.60;;
13404;SDS011;6773;51.192;7.024;2022-10-16T17:13:31;1.48;;;1.30;;
13404;SDS011;6773;51.192;7.024;2022-10-16T17:16:02;1.40;;;1.30;;
13404;SDS011;6773;51.192;7.024;2022-10-16T17:18:29;2.88;;;1.45;;